DEAGJ EDDH-EDHE
Flight info
| Callsign | DEAGJ |
|---|---|
| Flight time | 0h -7m |
| Altitude | |
| Route | |
| Aircraft | C152 |
Departure
| Time | 2026-04-25 11:52 |
|---|---|
| Airport | Hamburg Helmut Schmidt Airport (EDDH) |
Arrival
| Time | 2026-04-25 11:45 |
|---|---|
| Airport | Uetersen-Heist Airfield (EDHE) |
| Time | Latitude | Longitude | Altitude | Speed | Heading |
|---|---|---|---|---|---|
| 2026-04-25 11:45 | 53.62546 | 9.99577 | 38 ft | 0 kts | 353° |
| 2026-04-25 11:48 | 53.62557 | 9.99515 | 38 ft | 12 kts | 256° |
| 2026-04-25 11:48 | 53.62539 | 9.99385 | 38 ft | 9 kts | 268° |
| 2026-04-25 11:49 | 53.62575 | 9.99334 | 39 ft | 10 kts | 1° |
| 2026-04-25 11:49 | 53.62607 | 9.99477 | 38 ft | 17 kts | 78° |
| 2026-04-25 11:49 | 53.62629 | 9.99671 | 38 ft | 14 kts | 78° |
| 2026-04-25 11:49 | 53.62637 | 9.99734 | 38 ft | 0 kts | 78° |
| 2026-04-25 11:50 | 53.62659 | 9.99813 | 39 ft | 17 kts | 47° |
| 2026-04-25 11:50 | 53.62786 | 9.99811 | 40 ft | 16 kts | 332° |
| 2026-04-25 11:51 | 53.62812 | 9.99789 | 40 ft | 14 kts | 332° |
| 2026-04-25 11:51 | 53.63069 | 9.99567 | 42 ft | 65 kts | 334° |
| 2026-04-25 11:51 | 53.63503 | 9.99158 | 200 ft | 71 kts | 318° |
| 2026-04-25 11:51 | 53.63691 | 9.98421 | 390 ft | 72 kts | 278° |
| 2026-04-25 11:52 | 53.63784 | 9.97562 | 548 ft | 78 kts | 284° |
| 2026-04-25 11:52 | 53.63937 | 9.96676 | 751 ft | 78 kts | 287° |
| 2026-04-25 11:52 | 53.64115 | 9.95788 | 939 ft | 81 kts | 290° |
| 2026-04-25 11:52 | 53.64306 | 9.94928 | 1159 ft | 77 kts | 290° |
| 2026-04-25 11:53 | 53.64482 | 9.94117 | 1360 ft | 73 kts | 290° |
| 2026-04-25 11:53 | 53.64613 | 9.93536 | 1417 ft | 82 kts | 290° |
| 2026-04-25 11:53 | 53.64859 | 9.92604 | 1462 ft | 94 kts | 296° |
| 2026-04-25 11:53 | 53.65099 | 9.91546 | 1496 ft | 97 kts | 281° |
| 2026-04-25 11:54 | 53.65164 | 9.90417 | 1533 ft | 95 kts | 275° |
| 2026-04-25 11:54 | 53.65141 | 9.89347 | 1521 ft | 90 kts | 256° |
| 2026-04-25 11:54 | 53.64793 | 9.87427 | 1537 ft | 83 kts | 254° |
| 2026-04-25 11:55 | 53.64694 | 9.86479 | 1543 ft | 83 kts | 265° |
| 2026-04-25 11:55 | 53.64651 | 9.85490 | 1532 ft | 85 kts | 266° |
| 2026-04-25 11:55 | 53.64610 | 9.84508 | 1537 ft | 83 kts | 266° |
| 2026-04-25 11:55 | 53.64568 | 9.83479 | 1431 ft | 88 kts | 269° |
| 2026-04-25 11:56 | 53.64546 | 9.82505 | 1448 ft | 78 kts | 271° |
| 2026-04-25 11:56 | 53.64561 | 9.81521 | 1343 ft | 86 kts | 272° |
| 2026-04-25 11:56 | 53.64589 | 9.80517 | 1289 ft | 86 kts | 273° |
| 2026-04-25 11:56 | 53.64611 | 9.79500 | 1197 ft | 90 kts | 272° |
| 2026-04-25 11:57 | 53.64626 | 9.78451 | 1112 ft | 87 kts | 272° |
| 2026-04-25 11:57 | 53.64663 | 9.77559 | 1040 ft | 71 kts | 276° |
| 2026-04-25 11:57 | 53.64719 | 9.76736 | 953 ft | 70 kts | 277° |
| 2026-04-25 11:57 | 53.64737 | 9.75912 | 834 ft | 71 kts | 261° |
| 2026-04-25 11:58 | 53.64741 | 9.75067 | 697 ft | 75 kts | 273° |
| 2026-04-25 11:58 | 53.64693 | 9.74238 | 602 ft | 65 kts | 261° |
| 2026-04-25 11:58 | 53.64632 | 9.73504 | 547 ft | 62 kts | 264° |
| 2026-04-25 11:58 | 53.64605 | 9.72761 | 463 ft | 66 kts | 268° |
| 2026-04-25 11:59 | 53.64599 | 9.72001 | 334 ft | 64 kts | 271° |
| 2026-04-25 11:59 | 53.64621 | 9.71248 | 143 ft | 65 kts | 273° |
| 2026-04-25 11:59 | 53.64651 | 9.70565 | 28 ft | 46 kts | 275° |
| 2026-04-25 12:00 | 53.64650 | 9.69915 | 28 ft | 14 kts | 216° |
| 2026-04-25 12:00 | 53.64577 | 9.69893 | 28 ft | 9 kts | 179° |
| 2026-04-25 12:00 | 53.64397 | 9.69969 | 27 ft | 0 kts | 16° |
| 2026-04-25 12:07 | 53.64398 | 9.69969 | 27 ft | 2 kts | 15° |
| 2026-04-25 12:07 | 53.64485 | 9.69995 | 27 ft | 23 kts | 20° |
| 2026-04-25 12:08 | 53.64627 | 9.70210 | 27 ft | 32 kts | 61° |
| 2026-04-25 12:08 | 53.64630 | 9.70585 | 27 ft | 30 kts | 93° |
| 2026-04-25 12:08 | 53.64622 | 9.70908 | 25 ft | 25 kts | 92° |
| 2026-04-25 12:08 | 53.64592 | 9.71134 | 20 ft | 14 kts | 187° |
| 2026-04-25 12:09 | 53.64588 | 9.71008 | 19 ft | 13 kts | 271° |
| 2026-04-25 12:09 | 53.64596 | 9.70641 | 24 ft | 50 kts | 271° |
| 2026-04-25 12:09 | 53.64625 | 9.69997 | 97 ft | 55 kts | 275° |
| 2026-04-25 12:09 | 53.64692 | 9.69278 | 201 ft | 69 kts | 281° |
| 2026-04-25 12:10 | 53.64815 | 9.68469 | 379 ft | 73 kts | 287° |
| 2026-04-25 12:10 | 53.65035 | 9.67679 | 573 ft | 74 kts | 311° |
| 2026-04-25 12:10 | 53.65493 | 9.67278 | 773 ft | 78 kts | 348° |
| 2026-04-25 12:10 | 53.66013 | 9.67421 | 983 ft | 80 kts | 29° |
| 2026-04-25 12:11 | 53.66330 | 9.68168 | 1179 ft | 84 kts | 75° |
| 2026-04-25 12:11 | 53.66484 | 9.69191 | 1275 ft | 90 kts | 76° |
| 2026-04-25 12:11 | 53.66605 | 9.70232 | 1271 ft | 91 kts | 83° |
| 2026-04-25 12:11 | 53.66655 | 9.71267 | 1326 ft | 86 kts | 89° |
| 2026-04-25 12:12 | 53.66641 | 9.72270 | 1362 ft | 86 kts | 94° |
| 2026-04-25 12:12 | 53.66619 | 9.72935 | 1371 ft | 87 kts | 90° |
| 2026-04-25 12:12 | 53.66686 | 9.74304 | 1380 ft | 88 kts | 81° |
| 2026-04-25 12:12 | 53.66794 | 9.75314 | 1415 ft | 88 kts | 81° |
| 2026-04-25 12:13 | 53.66898 | 9.76345 | 1421 ft | 89 kts | 79° |
| 2026-04-25 12:13 | 53.67002 | 9.77394 | 1414 ft | 91 kts | 82° |
| 2026-04-25 12:13 | 53.67077 | 9.78457 | 1420 ft | 91 kts | 85° |
| 2026-04-25 12:13 | 53.67110 | 9.79525 | 1429 ft | 91 kts | 89° |
| 2026-04-25 12:14 | 53.67073 | 9.80576 | 1461 ft | 88 kts | 111° |
| 2026-04-25 12:14 | 53.66641 | 9.81207 | 1459 ft | 90 kts | 167° |
| 2026-04-25 12:14 | 53.66020 | 9.81463 | 1430 ft | 91 kts | 162° |
| 2026-04-25 12:14 | 53.65435 | 9.81818 | 1448 ft | 89 kts | 163° |
| 2026-04-25 12:15 | 53.64865 | 9.82247 | 1429 ft | 91 kts | 144° |
| 2026-04-25 12:15 | 53.64365 | 9.82946 | 1381 ft | 94 kts | 138° |
| 2026-04-25 12:15 | 53.63921 | 9.83751 | 1363 ft | 94 kts | 131° |
| 2026-04-25 12:15 | 53.63516 | 9.84597 | 1383 ft | 90 kts | 127° |
| 2026-04-25 12:16 | 53.63165 | 9.85473 | 1400 ft | 90 kts | 125° |
| 2026-04-25 12:16 | 53.62843 | 9.86360 | 1426 ft | 88 kts | 121° |
| 2026-04-25 12:16 | 53.62553 | 9.87271 | 1421 ft | 90 kts | 118° |
| 2026-04-25 12:16 | 53.62266 | 9.88194 | 1422 ft | 89 kts | 120° |
| 2026-04-25 12:17 | 53.61955 | 9.89112 | 1424 ft | 90 kts | 122° |
| 2026-04-25 12:17 | 53.61642 | 9.90016 | 1425 ft | 91 kts | 121° |
| 2026-04-25 12:17 | 53.61317 | 9.90937 | 1422 ft | 91 kts | 122° |
| 2026-04-25 12:17 | 53.60974 | 9.91843 | 1419 ft | 93 kts | 124° |
| 2026-04-25 12:18 | 53.60626 | 9.92742 | 1441 ft | 90 kts | 123° |
| 2026-04-25 12:18 | 53.60296 | 9.93648 | 1421 ft | 93 kts | 117° |
| 2026-04-25 12:18 | 53.60084 | 9.94653 | 1388 ft | 93 kts | 102° |
| 2026-04-25 12:18 | 53.60039 | 9.95752 | 1373 ft | 94 kts | 89° |
| 2026-04-25 12:19 | 53.60047 | 9.97559 | 1364 ft | 94 kts | 91° |
| 2026-04-25 12:19 | 53.60320 | 9.98891 | 1299 ft | 100 kts | 54° |
| 2026-04-25 12:19 | 53.60774 | 9.99746 | 1003 ft | 97 kts | 37° |
| 2026-04-25 12:20 | 53.61323 | 10.00345 | 737 ft | 92 kts | 24° |
| 2026-04-25 12:20 | 53.61914 | 10.00498 | 423 ft | 81 kts | 349° |
| 2026-04-25 12:20 | 53.62389 | 10.00178 | 189 ft | 64 kts | 329° |
| 2026-04-25 12:20 | 53.62756 | 9.99837 | 86 ft | 57 kts | 330° |
| 2026-04-25 12:21 | 53.63081 | 9.99558 | 42 ft | 43 kts | 331° |
| 2026-04-25 12:21 | 53.63259 | 9.99405 | 44 ft | 13 kts | 311° |
| 2026-04-25 12:21 | 53.63213 | 9.99347 | 44 ft | 14 kts | 195° |
| 2026-04-25 12:21 | 53.63096 | 9.99296 | 42 ft | 15 kts | 195° |
| 2026-04-25 12:22 | 53.63009 | 9.99196 | 42 ft | 15 kts | 233° |
| 2026-04-25 12:22 | 53.62940 | 9.99059 | 41 ft | 15 kts | 230° |
| 2026-04-25 12:22 | 53.62879 | 9.98944 | 41 ft | 11 kts | 215° |
| 2026-04-25 12:22 | 53.62826 | 9.98936 | 41 ft | 8 kts | 158° |
| 2026-04-25 12:23 | 53.62790 | 9.98969 | 41 ft | 1 kts | 134° |
| 2026-04-25 12:23 | 53.62786 | 9.98992 | 41 ft | 4 kts | 68° |
| 2026-04-25 12:23 | 53.62806 | 9.99051 | 41 ft | 7 kts | 63° |
| 2026-04-25 12:23 | 53.62819 | 9.99092 | 41 ft | 0 kts | 59° |